createdAt,value
2023-03-22T00:01:46.902Z,94020.03
2023-03-22T00:04:13.398Z,94026.00
2023-03-22T00:06:39.785Z,94031.22
2023-03-22T00:09:06.599Z,94040.66
2023-03-22T00:11:32.925Z,94040.88
2023-03-22T00:13:59.588Z,94043.50
2023-03-22T00:16:26.839Z,94046.16
2023-03-22T00:18:53.254Z,94035.56
2023-03-22T00:21:19.679Z,94040.06
2023-03-22T00:23:46.733Z,94035.56
2023-03-22T00:26:14.612Z,94037.16
2023-03-22T00:28:42.262Z,94034.41
2023-03-22T00:31:09.639Z,94038.09
2023-03-22T00:33:36.901Z,94031.47
2023-03-22T00:36:09.050Z,94036.97
2023-03-22T00:38:46.347Z,94035.16
2023-03-22T00:41:14.489Z,94036.63
2023-03-22T00:43:41.873Z,94033.94
2023-03-22T00:46:09.493Z,94043.69
2023-03-22T00:48:35.983Z,94035.50
2023-03-22T00:51:02.690Z,94038.19
2023-03-22T00:53:29.250Z,94035.28
2023-03-22T00:55:56.954Z,94026.59
2023-03-22T00:58:23.765Z,94023.19
2023-03-22T01:00:50.324Z,94021.03
2023-03-22T01:03:17.324Z,94021.41
2023-03-22T01:05:47.513Z,94025.84
2023-03-22T01:08:14.776Z,94024.72
2023-03-22T01:10:42.054Z,94025.19
2023-03-22T01:13:09.959Z,94020.72
2023-03-22T01:15:36.606Z,94024.44
2023-03-22T01:18:03.486Z,94018.03
2023-03-22T01:20:30.554Z,94022.75
2023-03-22T01:22:56.892Z,94026.16
2023-03-22T01:25:23.291Z,94016.94
2023-03-22T01:27:50.101Z,94028.25
2023-03-22T01:30:16.586Z,94027.31
2023-03-22T01:32:43.024Z,94017.75
2023-03-22T01:35:10.463Z,94012.34
2023-03-22T01:37:36.845Z,94012.81
2023-03-22T01:40:04.250Z,94015.88
2023-03-22T01:42:31.284Z,94019.28
2023-03-22T01:45:16.634Z,94021.09
2023-03-22T01:47:52.106Z,94023.78
2023-03-22T01:50:19.564Z,94018.66
2023-03-22T01:52:46.090Z,94020.13
2023-03-22T01:55:13.354Z,94019.41
2023-03-22T01:57:43.821Z,94019.72
2023-03-22T02:00:17.219Z,94025.00
2023-03-22T02:02:44.130Z,94029.47
2023-03-22T02:05:12.225Z,94040.00
2023-03-22T02:07:40.987Z,94062.00
2023-03-22T02:10:16.743Z,94057.69
2023-03-22T02:13:16.880Z,94065.38
2023-03-22T02:16:02.959Z,94076.25
2023-03-22T02:18:47.139Z,94081.91
2023-03-22T02:21:44.053Z,94074.47
2023-03-22T02:24:39.427Z,94077.97
2023-03-22T02:27:24.034Z,94083.84
2023-03-22T02:30:18.450Z,94086.88
2023-03-22T02:33:03.249Z,94081.88
2023-03-22T02:35:38.550Z,94075.25
2023-03-22T02:38:27.800Z,94080.75
2023-03-22T02:41:12.494Z,94099.44
2023-03-22T02:44:16.857Z,94101.22
2023-03-22T02:46:47.793Z,94098.13
2023-03-22T02:49:35.431Z,94090.13
2023-03-22T02:52:12.978Z,94100.28
2023-03-22T02:54:45.685Z,94084.06
2023-03-22T02:57:20.862Z,94092.63
2023-03-22T02:59:50.518Z,94093.22
2023-03-22T03:02:18.437Z,94093.31
2023-03-22T03:04:50.150Z,94088.31
2023-03-22T03:07:21.842Z,94089.81
2023-03-22T03:09:50.714Z,94095.63
2023-03-22T03:12:23.117Z,94087.94
2023-03-22T03:14:49.674Z,94097.22
2023-03-22T03:17:41.597Z,94095.16
2023-03-22T03:20:29.858Z,94096.47
2023-03-22T03:23:14.106Z,94100.13
2023-03-22T03:25:46.517Z,94103.66
2023-03-22T03:28:45.588Z,94105.13
2023-03-22T03:31:17.925Z,94108.66
2023-03-22T03:33:55.177Z,94109.03
2023-03-22T03:36:23.602Z,94112.88
2023-03-22T03:38:52.993Z,94118.16
2023-03-22T03:41:24.594Z,94123.16
2023-03-22T03:43:52.700Z,94086.03
2023-03-22T03:46:19.884Z,94084.97
2023-03-22T03:48:50.837Z,94088.63
2023-03-22T03:51:17.195Z,94097.19
2023-03-22T03:53:43.614Z,94098.44
2023-03-22T03:56:10.775Z,94107.31
2023-03-22T03:58:37.238Z,94106.06
2023-03-22T04:01:04.043Z,94100.38
2023-03-22T04:03:32.036Z,94103.00
2023-03-22T04:05:59.701Z,94109.72
2023-03-22T04:08:26.351Z,94110.44
2023-03-22T04:10:53.065Z,94102.06
2023-03-22T04:13:21.461Z,94108.81
2023-03-22T04:15:53.246Z,94098.97
2023-03-22T04:18:21.184Z,94108.22
2023-03-22T04:20:49.364Z,94104.22
2023-03-22T04:23:17.041Z,94114.44
2023-03-22T04:25:43.565Z,94116.91
2023-03-22T04:28:09.898Z,94120.00
2023-03-22T04:30:36.928Z,94123.50
2023-03-22T04:33:07.512Z,94123.06
2023-03-22T04:35:35.309Z,94120.66
2023-03-22T04:38:01.933Z,94119.56
2023-03-22T04:40:31.651Z,94130.06
2023-03-22T04:42:59.161Z,94132.47
2023-03-22T04:45:29.052Z,94136.78
2023-03-22T04:47:55.890Z,94134.72
2023-03-22T04:50:22.811Z,94143.06
2023-03-22T04:52:49.850Z,94139.78
2023-03-22T04:55:16.393Z,94148.22
2023-03-22T04:57:43.057Z,94148.75
2023-03-22T05:00:09.964Z,94156.91
2023-03-22T05:02:41.078Z,94159.81
2023-03-22T05:05:08.155Z,94167.25
2023-03-22T05:07:34.894Z,94163.44
2023-03-22T05:10:01.558Z,94175.03
2023-03-22T05:12:28.366Z,94173.34
2023-03-22T05:14:54.721Z,94180.88
2023-03-22T05:17:21.534Z,94182.53
2023-03-22T05:19:47.948Z,94181.94
2023-03-22T05:22:14.862Z,94188.75
2023-03-22T05:24:41.498Z,94201.13
2023-03-22T05:27:08.353Z,94201.59
2023-03-22T05:29:37.240Z,94205.63
2023-03-22T05:32:04.186Z,94207.16
2023-03-22T05:34:35.632Z,94208.91
2023-03-22T05:37:03.001Z,94200.78
2023-03-22T05:39:29.734Z,94202.53
2023-03-22T05:41:56.036Z,94203.69
2023-03-22T05:44:22.741Z,94204.66
2023-03-22T05:46:49.667Z,94202.97
2023-03-22T05:49:16.013Z,94202.94
2023-03-22T05:51:42.967Z,94211.97
2023-03-22T05:54:10.269Z,94228.00
2023-03-22T05:56:36.822Z,94227.13
2023-03-22T05:59:04.604Z,94228.41
2023-03-22T06:01:31.650Z,94225.25
2023-03-22T06:03:57.970Z,94228.91
2023-03-22T06:06:24.412Z,94234.94
2023-03-22T06:08:51.156Z,94230.97
2023-03-22T06:11:19.142Z,94231.72
2023-03-22T06:13:45.912Z,94211.81
2023-03-22T06:16:12.303Z,94202.53
2023-03-22T06:18:38.645Z,94205.56
2023-03-22T06:21:05.720Z,94197.06
2023-03-22T06:23:32.066Z,94180.81
2023-03-22T06:25:58.418Z,94176.94
2023-03-22T06:28:29.787Z,94171.84
2023-03-22T06:30:56.587Z,94156.03
2023-03-22T06:33:23.459Z,94139.75
2023-03-22T06:35:50.619Z,94095.19
2023-03-22T06:38:16.954Z,94069.03
2023-03-22T06:40:43.797Z,94066.38
2023-03-22T06:43:10.162Z,94034.03
2023-03-22T06:45:36.533Z,93956.66
2023-03-22T06:48:03.418Z,93900.72
2023-03-22T06:50:30.793Z,93872.81
2023-03-22T06:52:57.527Z,93865.31
2023-03-22T06:55:24.012Z,93818.53
2023-03-22T06:57:51.045Z,93811.38
2023-03-22T07:00:17.861Z,93822.47
2023-03-22T07:02:44.896Z,93842.91
2023-03-22T07:05:11.233Z,93847.34
2023-03-22T07:07:37.931Z,93896.72
2023-03-22T07:10:05.007Z,93940.78
2023-03-22T07:12:31.758Z,93964.66
2023-03-22T07:14:58.291Z,93955.13
2023-03-22T07:17:24.811Z,93992.25
2023-03-22T07:19:51.195Z,94014.81
2023-03-22T07:22:17.649Z,94021.00
2023-03-22T07:24:56.186Z,94034.69
2023-03-22T07:27:23.938Z,94072.38
2023-03-22T07:29:50.458Z,94108.25
2023-03-22T07:32:16.872Z,94119.16
2023-03-22T07:34:43.658Z,94158.56
2023-03-22T07:37:10.231Z,94151.63
2023-03-22T07:39:36.619Z,94205.06
2023-03-22T07:42:03.733Z,94192.59
2023-03-22T07:44:30.294Z,94212.72
2023-03-22T07:46:56.700Z,94204.28
2023-03-22T07:49:23.310Z,94198.13
2023-03-22T07:51:49.656Z,94201.06
2023-03-22T07:54:32.062Z,94213.03
2023-03-22T07:57:01.647Z,94202.66
2023-03-22T07:59:28.209Z,94226.09
2023-03-22T08:01:54.748Z,94240.97
2023-03-22T08:04:22.649Z,94217.53
2023-03-22T08:06:49.767Z,94203.22
2023-03-22T08:09:16.199Z,94225.25
2023-03-22T08:11:42.896Z,94253.50
2023-03-22T08:14:09.609Z,94295.13
2023-03-22T08:16:36.288Z,94291.47
2023-03-22T08:19:02.813Z,94357.47
2023-03-22T08:21:29.200Z,94323.09
2023-03-22T08:23:55.918Z,94399.47
2023-03-22T08:26:23.129Z,94376.34
2023-03-22T08:28:49.472Z,94408.88
2023-03-22T08:31:17.663Z,94465.50
2023-03-22T08:33:45.020Z,94506.72
2023-03-22T08:36:16.218Z,94543.72
2023-03-22T08:38:42.856Z,94537.97
2023-03-22T08:41:09.680Z,94579.56
2023-03-22T08:43:36.010Z,94570.81
2023-03-22T08:46:03.238Z,94588.69
2023-03-22T08:48:30.648Z,94632.66
2023-03-22T08:50:58.357Z,94585.94
2023-03-22T08:53:24.760Z,94667.38
2023-03-22T08:55:51.149Z,94681.59
2023-03-22T08:58:19.785Z,94798.00
2023-03-22T09:00:49.401Z,94767.63
2023-03-22T09:03:17.300Z,94772.44
2023-03-22T09:05:43.841Z,94767.00
2023-03-22T09:08:18.603Z,94754.72
2023-03-22T09:10:48.325Z,94783.34
2023-03-22T09:13:16.671Z,94767.25
2023-03-22T09:15:47.129Z,94827.94
2023-03-22T09:18:14.738Z,94815.34
2023-03-22T09:20:41.297Z,94857.03
2023-03-22T09:23:07.880Z,94815.59
2023-03-22T09:25:34.724Z,94856.84
2023-03-22T09:28:01.463Z,94944.88
2023-03-22T09:30:28.489Z,94984.19
2023-03-22T09:32:55.259Z,95011.00
2023-03-22T09:35:21.861Z,95044.16
2023-03-22T09:37:49.691Z,95065.78
2023-03-22T09:40:17.609Z,95096.56
2023-03-22T09:42:48.039Z,95043.16
2023-03-22T09:45:21.866Z,95054.28
2023-03-22T09:47:52.594Z,95031.31
2023-03-22T09:50:22.015Z,95031.56
2023-03-22T09:52:49.974Z,95051.88
2023-03-22T09:55:25.484Z,95017.47
2023-03-22T09:58:07.897Z,95032.88
2023-03-22T10:00:52.505Z,95019.44
2023-03-22T10:03:31.874Z,95085.50
2023-03-22T10:06:17.639Z,95054.09
2023-03-22T10:08:52.802Z,95137.38
2023-03-22T10:11:49.358Z,95107.44
2023-03-22T10:14:34.695Z,95150.97
2023-03-22T10:17:05.557Z,95139.50
2023-03-22T10:19:44.582Z,95132.25
2023-03-22T10:22:16.372Z,95095.03
2023-03-22T10:24:47.335Z,95112.88
2023-03-22T10:27:17.149Z,95071.88
2023-03-22T10:29:47.468Z,95075.06
2023-03-22T10:32:26.673Z,95077.03
2023-03-22T10:34:53.006Z,95093.50
2023-03-22T10:37:25.382Z,95159.59
2023-03-22T10:39:55.248Z,95135.78
2023-03-22T10:42:27.830Z,95122.59
2023-03-22T10:45:08.492Z,95075.50
2023-03-22T10:47:41.470Z,95078.03
2023-03-22T10:50:21.039Z,95100.75
2023-03-22T10:53:08.769Z,95101.44
2023-03-22T10:55:43.911Z,95097.34
2023-03-22T10:58:10.227Z,95110.25
2023-03-22T11:00:40.167Z,95078.75
2023-03-22T11:03:08.017Z,95062.72
2023-03-22T11:05:34.550Z,95007.59
2023-03-22T11:08:02.669Z,95058.47
2023-03-22T11:10:35.448Z,95131.09
2023-03-22T11:13:07.743Z,95132.75
2023-03-22T11:15:39.311Z,95131.06
2023-03-22T11:18:11.187Z,95105.25
2023-03-22T11:20:42.174Z,95092.69
2023-03-22T11:23:17.667Z,95090.81
2023-03-22T11:25:48.028Z,95124.44
2023-03-22T11:28:34.455Z,95137.78
2023-03-22T11:31:13.078Z,95205.78
2023-03-22T11:33:55.502Z,95247.41
2023-03-22T11:36:22.047Z,95225.22
2023-03-22T11:38:48.946Z,95204.19
2023-03-22T11:41:29.664Z,95194.53
2023-03-22T11:44:06.690Z,95175.50
2023-03-22T11:46:35.200Z,95197.72
2023-03-22T11:49:09.295Z,95200.28
2023-03-22T11:51:38.716Z,95215.16
2023-03-22T11:54:21.070Z,95281.81
2023-03-22T11:56:48.923Z,95228.41
2023-03-22T11:59:23.325Z,95216.81
2023-03-22T12:02:12.811Z,95200.88
2023-03-22T12:04:41.611Z,95207.47
2023-03-22T12:07:16.751Z,95169.78
2023-03-22T12:10:00.048Z,95166.53
2023-03-22T12:12:31.757Z,95191.69
2023-03-22T12:15:05.848Z,95233.47
2023-03-22T12:17:38.591Z,95233.38
2023-03-22T12:20:16.017Z,95244.13
2023-03-22T12:22:47.846Z,95227.56
2023-03-22T12:25:21.799Z,95178.19
2023-03-22T12:27:53.140Z,95224.25
2023-03-22T12:30:31.083Z,95214.53
2023-03-22T12:33:16.665Z,95210.63
2023-03-22T12:35:46.242Z,95188.75
2023-03-22T12:38:15.720Z,95218.38
2023-03-22T12:40:43.576Z,95203.84
2023-03-22T12:43:40.524Z,95179.19
2023-03-22T12:46:15.986Z,95165.50
2023-03-22T12:48:54.167Z,95214.16
2023-03-22T12:51:20.799Z,95249.16
2023-03-22T12:53:53.266Z,95232.13
2023-03-22T12:56:24.953Z,95226.25
2023-03-22T12:59:03.963Z,95207.63
2023-03-22T13:01:45.023Z,95207.78
2023-03-22T13:04:34.525Z,95211.91
2023-03-22T13:07:31.920Z,95203.44
2023-03-22T13:10:01.167Z,95177.44
2023-03-22T13:12:33.254Z,95178.38
2023-03-22T13:15:25.979Z,95168.28
2023-03-22T13:17:58.902Z,95183.66
2023-03-22T13:20:28.284Z,95186.41
2023-03-22T13:22:54.540Z,95192.19
2023-03-22T13:26:00.406Z,95171.63
2023-03-22T13:28:28.282Z,95184.91
2023-03-22T13:30:58.450Z,95191.88
2023-03-22T13:33:30.596Z,95191.03
2023-03-22T13:36:21.184Z,95187.94
2023-03-22T13:38:55.713Z,95199.38
2023-03-22T13:41:28.875Z,95228.50
2023-03-22T13:43:58.076Z,95213.94
2023-03-22T13:46:46.078Z,95234.41
2023-03-22T13:49:46.937Z,95222.47
2023-03-22T13:52:26.074Z,95202.75
2023-03-22T13:54:54.817Z,95170.56
2023-03-22T13:57:47.970Z,95200.66
2023-03-22T14:00:31.549Z,95187.97
2023-03-22T14:03:02.318Z,95169.09
2023-03-22T14:05:34.281Z,95191.28
2023-03-22T14:08:03.050Z,95211.16
2023-03-22T14:10:43.340Z,95185.47
2023-03-22T14:13:46.521Z,95191.13
2023-03-22T14:16:19.943Z,95180.34
2023-03-22T14:18:49.545Z,95177.09
2023-03-22T14:21:21.417Z,95169.59
